Time;durP1;ratioP1;P1;durP2;ratioP2;P2;SDS_P1;SDS_P2;PMS_P1;PMS_P2;Temp;Humidity;BMP_temperature;BMP_pressure;BME280_temperature;BME280_humidity;BME280_pressure;Samples;Min_cycle;Max_cycle;Signal;HPM_P1;HPM_P2
2023/09/09 00:02:27;;;;;;;11.20;9.73;;;17.90;99.90;;;;;;6253314;28;20046;-84
2023/09/09 00:05:30;;;;;;;11.23;10.02;;;17.90;99.90;;;;;;6252404;28;20069;-83
2023/09/09 00:08:31;;;;;;;13.15;9.65;;;17.80;99.90;;;;;;6256862;28;20060;-81
2023/09/09 00:11:33;;;;;;;11.73;9.25;;;17.90;99.90;;;;;;6264957;28;20413;-81
2023/09/09 00:14:37;;;;;;;12.43;10.88;;;17.80;99.90;;;;;;6252334;28;20041;-81
2023/09/09 00:17:38;;;;;;;13.48;8.73;;;17.80;99.90;;;;;;6250844;28;20128;-83
2023/09/09 00:20:40;;;;;;;11.82;8.80;;;17.70;99.90;;;;;;6252335;28;20041;-84
2023/09/09 00:23:42;;;;;;;11.23;8.48;;;17.70;99.90;;;;;;6251459;28;20049;-83
2023/09/09 00:26:44;;;;;;;15.90;9.55;;;17.70;99.90;;;;;;6252355;28;20064;-83
2023/09/09 00:29:47;;;;;;;10.23;9.23;;;17.70;99.90;;;;;;6251800;28;20723;-82
2023/09/09 00:32:48;;;;;;;9.98;8.93;;;17.60;99.90;;;;;;6251152;28;20037;-83
2023/09/09 00:35:50;;;;;;;13.25;9.60;;;17.60;99.90;;;;;;6251132;28;20052;-82
2023/09/09 00:38:51;;;;;;;10.05;9.05;;;17.50;99.90;;;;;;6253454;28;20076;-84
2023/09/09 00:41:53;;;;;;;9.73;8.75;;;17.50;99.90;;;;;;6252782;28;20053;-81
2023/09/09 00:44:56;;;;;;;13.60;10.63;;;17.40;99.90;;;;;;6251127;28;20058;-83
2023/09/09 00:47:58;;;;;;;10.70;8.23;;;17.40;99.90;;;;;;6251702;28;20113;-83
2023/09/09 00:51:01;;;;;;;10.70;9.13;;;17.30;99.90;;;;;;6251837;28;20056;-82
2023/09/09 00:54:02;;;;;;;10.38;9.40;;;17.20;99.90;;;;;;6251417;28;20527;-82
2023/09/09 00:57:05;;;;;;;12.00;8.43;;;17.20;99.90;;;;;;6252758;28;20052;-84
2023/09/09 01:00:10;;;;;;;9.88;8.85;;;17.20;99.90;;;;;;6251316;28;20045;-82
2023/09/09 01:03:12;;;;;;;12.55;10.13;;;17.20;99.90;;;;;;6251509;28;20049;-80
2023/09/09 01:06:13;;;;;;;9.75;7.68;;;17.20;99.90;;;;;;6250341;28;20042;-83
2023/09/09 01:09:15;;;;;;;9.80;8.68;;;17.20;99.90;;;;;;6250674;28;20052;-82
2023/09/09 01:12:17;;;;;;;9.73;8.68;;;17.10;99.90;;;;;;6242388;28;20060;-81
2023/09/09 01:15:20;;;;;;;10.00;8.98;;;17.10;99.90;;;;;;6251745;28;20049;-83
2023/09/09 01:18:22;;;;;;;10.15;8.23;;;17.10;99.90;;;;;;6251784;28;20072;-81
2023/09/09 01:21:28;;;;;;;10.02;8.88;;;17.10;99.90;;;;;;6251161;28;20056;-82
2023/09/09 01:24:32;;;;;;;12.30;9.63;;;17.00;99.90;;;;;;6250738;28;20037;-81
2023/09/09 01:27:34;;;;;;;12.20;9.60;;;17.00;99.90;;;;;;6250408;28;20041;-82
2023/09/09 01:30:36;;;;;;;10.60;9.55;;;17.00;99.90;;;;;;6248821;28;20045;-81
2023/09/09 01:33:37;;;;;;;12.27;9.55;;;17.00;99.90;;;;;;6250326;28;20053;-83
2023/09/09 01:36:39;;;;;;;10.52;9.07;;;16.90;99.90;;;;;;6250500;28;20454;-83
2023/09/09 01:39:42;;;;;;;10.63;9.27;;;16.90;99.90;;;;;;6251115;28;20056;-82
2023/09/09 01:42:47;;;;;;;12.65;10.30;;;16.90;99.90;;;;;;6250371;28;20056;-82
2023/09/09 01:45:49;;;;;;;10.70;8.75;;;16.90;99.90;;;;;;6250272;28;20045;-82
2023/09/09 01:48:51;;;;;;;10.95;9.05;;;16.90;99.90;;;;;;6249666;28;20057;-82
2023/09/09 01:51:53;;;;;;;9.73;8.52;;;16.90;99.90;;;;;;6250607;28;20033;-82
2023/09/09 01:54:56;;;;;;;10.73;9.02;;;16.80;99.90;;;;;;6250724;28;20724;-82
2023/09/09 01:57:58;;;;;;;11.80;8.57;;;16.90;99.90;;;;;;6250175;28;20421;-82
2023/09/09 02:00:59;;;;;;;10.90;8.63;;;16.80;99.90;;;;;;6249933;28;20042;-82
2023/09/09 02:04:01;;;;;;;9.88;8.88;;;16.80;99.90;;;;;;6250585;28;20056;-82
2023/09/09 02:07:03;;;;;;;9.57;8.60;;;16.70;99.90;;;;;;6251124;28;20041;-83
2023/09/09 02:10:07;;;;;;;10.93;9.00;;;16.70;99.90;;;;;;6251452;28;20049;-84
2023/09/09 02:13:08;;;;;;;9.93;8.45;;;16.70;99.90;;;;;;6250529;28;20049;-84
2023/09/09 02:16:10;;;;;;;10.63;8.35;;;16.70;99.90;;;;;;6250360;28;20048;-84
2023/09/09 02:19:12;;;;;;;10.45;8.77;;;16.70;99.90;;;;;;6250797;28;20049;-82
2023/09/09 02:22:13;;;;;;;11.15;9.50;;;16.60;99.90;;;;;;6249320;28;20473;-82
2023/09/09 02:25:16;;;;;;;10.57;9.50;;;16.60;99.90;;;;;;6249414;28;20052;-82
2023/09/09 02:28:18;;;;;;;9.80;8.80;;;16.60;99.90;;;;;;6249651;28;20139;-83
2023/09/09 02:31:20;;;;;;;9.45;8.57;;;16.50;99.90;;;;;;6249579;28;20168;-84
2023/09/09 02:34:22;;;;;;;9.00;8.10;;;16.50;99.90;;;;;;6249386;28;20422;-80
2023/09/09 02:37:25;;;;;;;12.52;9.65;;;16.40;99.90;;;;;;6249970;28;20049;-81
2023/09/09 02:40:28;;;;;;;11.70;9.07;;;16.40;99.90;;;;;;6248580;28;20050;-83
2023/09/09 02:43:30;;;;;;;12.57;8.75;;;16.40;99.90;;;;;;6248774;28;20079;-82
2023/09/09 02:46:32;;;;;;;9.90;7.78;;;16.40;99.90;;;;;;6250450;28;20030;-81
2023/09/09 02:49:33;;;;;;;14.27;9.13;;;16.40;99.90;;;;;;6253486;28;20053;-84
2023/09/09 02:52:35;;;;;;;10.40;9.35;;;16.30;99.90;;;;;;6253830;28;20037;-83
2023/09/09 02:55:38;;;;;;;14.52;10.70;;;16.30;99.90;;;;;;6253845;28;20422;-81
2023/09/09 02:58:40;;;;;;;10.93;8.90;;;16.30;99.90;;;;;;6251617;28;20050;-82
2023/09/09 03:01:42;;;;;;;9.63;8.63;;;16.30;99.90;;;;;;6252952;28;20478;-82
2023/09/09 03:04:44;;;;;;;9.15;8.23;;;16.30;99.90;;;;;;6253092;28;20071;-84
2023/09/09 03:07:48;;;;;;;12.45;8.98;;;16.20;99.90;;;;;;6252687;28;20037;-84
2023/09/09 03:10:52;;;;;;;10.55;9.32;;;16.20;99.90;;;;;;6253348;28;20053;-84
2023/09/09 03:13:54;;;;;;;9.48;8.27;;;16.20;99.90;;;;;;6252499;28;20049;-82
2023/09/09 03:16:56;;;;;;;10.43;9.40;;;16.20;99.90;;;;;;6252501;28;20044;-82
2023/09/09 03:19:58;;;;;;;13.23;9.88;;;16.20;99.90;;;;;;6252301;28;20073;-83
2023/09/09 03:22:59;;;;;;;11.40;10.10;;;16.20;99.90;;;;;;6252871;28;20056;-84
2023/09/09 03:26:04;;;;;;;10.18;8.35;;;16.10;99.90;;;;;;6251433;28;20049;-83
2023/09/09 03:29:06;;;;;;;13.57;9.32;;;16.00;99.90;;;;;;6251245;28;20050;-83
2023/09/09 03:32:08;;;;;;;9.80;8.60;;;16.00;99.90;;;;;;6250883;28;20056;-83
2023/09/09 03:35:10;;;;;;;10.35;9.23;;;15.90;99.90;;;;;;6252056;28;20111;-83
2023/09/09 03:38:12;;;;;;;10.88;9.07;;;15.90;99.90;;;;;;6251291;28;20042;-81
2023/09/09 03:41:15;;;;;;;9.82;8.00;;;15.90;99.90;;;;;;6251781;28;20105;-82
2023/09/09 03:44:16;;;;;;;13.02;8.73;;;15.90;99.90;;;;;;6252782;28;20045;-83
2023/09/09 03:47:18;;;;;;;10.43;9.32;;;15.90;99.90;;;;;;6251327;28;20052;-83
2023/09/09 03:50:20;;;;;;;10.68;9.57;;;15.90;99.90;;;;;;6251038;28;20398;-82
2023/09/09 03:53:21;;;;;;;9.48;8.45;;;15.90;99.90;;;;;;6250561;28;20052;-82
2023/09/09 03:56:24;;;;;;;12.50;9.20;;;15.90;99.90;;;;;;6250987;28;20046;-82
2023/09/09 03:59:29;;;;;;;12.13;8.73;;;15.90;99.90;;;;;;6252455;28;20053;-83
2023/09/09 04:02:31;;;;;;;9.75;8.27;;;15.80;99.90;;;;;;6251240;28;20053;-83
2023/09/09 04:05:32;;;;;;;10.10;9.10;;;15.80;99.90;;;;;;6250889;28;20581;-81
2023/09/09 04:08:35;;;;;;;9.50;8.60;;;15.80;99.90;;;;;;6250335;28;20052;-81
2023/09/09 04:11:38;;;;;;;11.80;10.07;;;15.90;99.90;;;;;;6250929;28;20059;-82
2023/09/09 04:14:40;;;;;;;10.90;9.80;;;15.80;99.90;;;;;;6250684;28;20046;-81
2023/09/09 04:17:42;;;;;;;10.70;9.70;;;15.80;99.90;;;;;;6251408;28;20711;-84
2023/09/09 04:20:44;;;;;;;8.70;7.75;;;15.80;99.90;;;;;;6250075;28;20045;-82
2023/09/09 04:23:46;;;;;;;10.07;9.18;;;15.80;99.90;;;;;;6250954;28;20542;-81
2023/09/09 04:26:49;;;;;;;11.13;9.18;;;15.80;99.90;;;;;;6251043;28;20049;-81
2023/09/09 04:29:51;;;;;;;13.48;9.65;;;15.70;99.90;;;;;;6250772;28;20044;-81
2023/09/09 04:32:52;;;;;;;10.52;9.45;;;15.70;99.90;;;;;;6250652;28;20048;-81
2023/09/09 04:35:54;;;;;;;10.40;8.13;;;15.70;99.90;;;;;;6251218;28;20049;-81
2023/09/09 04:38:55;;;;;;;10.30;8.90;;;15.70;99.90;;;;;;6251729;28;20052;-81
2023/09/09 04:41:58;;;;;;;9.77;8.80;;;15.60;99.90;;;;;;6250208;28;20056;-82
2023/09/09 04:45:00;;;;;;;9.65;8.48;;;15.70;99.90;;;;;;6251016;28;20049;-82
2023/09/09 04:48:02;;;;;;;9.75;7.88;;;15.60;99.90;;;;;;6250921;28;20059;-82
2023/09/09 04:51:04;;;;;;;9.77;8.77;;;15.60;99.90;;;;;;6250298;28;20056;-80
2023/09/09 04:54:06;;;;;;;11.07;9.18;;;15.60;99.90;;;;;;6251457;28;20054;-81
2023/09/09 04:57:09;;;;;;;11.15;9.23;;;15.60;99.90;;;;;;6250556;28;20524;-82
2023/09/09 05:00:11;;;;;;;10.55;9.32;;;15.50;99.90;;;;;;6249749;28;20048;-81
2023/09/09 05:03:13;;;;;;;10.52;9.25;;;15.60;99.90;;;;;;6250276;28;20049;-81
2023/09/09 05:06:15;;;;;;;10.00;8.95;;;15.60;99.90;;;;;;6249952;28;20046;-80
2023/09/09 05:09:17;;;;;;;9.77;8.60;;;15.60;99.90;;;;;;6247995;28;20121;-81
2023/09/09 05:12:20;;;;;;;11.05;9.30;;;15.60;99.90;;;;;;6250408;28;20048;-82
2023/09/09 05:15:22;;;;;;;30.13;11.18;;;15.50;99.90;;;;;;6250896;28;20049;-82
2023/09/09 05:18:24;;;;;;;12.38;10.38;;;15.60;99.90;;;;;;6250327;28;20529;-80
2023/09/09 05:21:25;;;;;;;10.38;9.38;;;15.60;99.90;;;;;;6249741;28;20060;-80
2023/09/09 05:24:27;;;;;;;16.02;9.20;;;15.60;99.90;;;;;;6250024;28;20050;-81
2023/09/09 05:27:30;;;;;;;9.75;8.18;;;15.70;99.90;;;;;;6251253;28;20042;-80
2023/09/09 05:30:32;;;;;;;12.88;9.43;;;15.80;99.90;;;;;;6251318;28;20046;-80
2023/09/09 05:33:33;;;;;;;9.93;8.93;;;15.90;99.90;;;;;;6251081;28;20049;-81
2023/09/09 05:36:35;;;;;;;9.80;8.77;;;16.10;99.90;;;;;;6250158;28;20041;-81
2023/09/09 05:39:36;;;;;;;14.13;8.07;;;16.10;99.90;;;;;;6250841;28;20049;-80
2023/09/09 05:42:40;;;;;;;8.63;7.72;;;16.20;99.90;;;;;;6250544;28;20552;-82
2023/09/09 05:45:41;;;;;;;10.07;8.52;;;16.30;99.90;;;;;;6249516;28;20052;-80
2023/09/09 05:48:43;;;;;;;8.57;7.75;;;16.40;99.90;;;;;;6251968;28;20056;-82
2023/09/09 05:51:45;;;;;;;9.82;8.40;;;16.60;99.90;;;;;;6251601;28;20050;-80
2023/09/09 05:54:46;;;;;;;8.75;7.82;;;16.80;99.90;;;;;;6251258;28;20057;-80
2023/09/09 05:57:49;;;;;;;11.38;9.55;;;16.90;99.90;;;;;;6251668;28;20105;-81
2023/09/09 06:00:51;;;;;;;9.15;8.18;;;17.10;99.90;;;;;;6260716;28;20044;-81
2023/09/09 06:03:54;;;;;;;8.10;7.15;;;17.50;99.90;;;;;;6253606;28;20045;-81
2023/09/09 06:06:56;;;;;;;9.05;7.57;;;17.70;99.90;;;;;;6251045;28;20037;-82
2023/09/09 06:09:58;;;;;;;8.90;7.78;;;17.90;99.90;;;;;;6250202;28;20438;-82
2023/09/09 06:13:01;;;;;;;9.35;8.13;;;18.10;99.90;;;;;;6249488;28;20536;-81
2023/09/09 06:16:04;;;;;;;8.40;7.18;;;18.30;99.90;;;;;;6249870;28;20523;-83
2023/09/09 06:19:06;;;;;;;9.23;8.32;;;18.50;99.90;;;;;;6249611;28;20046;-82
2023/09/09 06:22:07;;;;;;;9.35;8.00;;;18.70;99.90;;;;;;6251903;28;20046;-82
2023/09/09 06:25:09;;;;;;;8.30;7.50;;;19.00;99.90;;;;;;6254465;28;20040;-82
2023/09/09 06:28:12;;;;;;;8.05;7.25;;;19.30;99.90;;;;;;6253863;28;20037;-82
2023/09/09 06:31:14;;;;;;;8.13;6.97;;;19.60;99.90;;;;;;6253702;28;20053;-81
2023/09/09 06:34:16;;;;;;;7.78;7.03;;;19.90;99.90;;;;;;6242623;28;20052;-79
2023/09/09 06:37:18;;;;;;;8.73;7.82;;;20.20;99.90;;;;;;6269081;28;20052;-80
2023/09/09 06:40:20;;;;;;;12.75;8.07;;;20.50;99.90;;;;;;6254897;28;20054;-79
2023/09/09 06:43:23;;;;;;;10.77;8.85;;;20.80;99.90;;;;;;6249974;28;20060;-81
2023/09/09 06:46:25;;;;;;;10.02;8.88;;;21.10;99.90;;;;;;6249119;28;20045;-80
2023/09/09 06:49:26;;;;;;;11.02;9.85;;;21.40;99.90;;;;;;6252363;28;20045;-79
2023/09/09 06:52:28;;;;;;;10.93;8.25;;;21.60;99.90;;;;;;6255164;28;20072;-78
2023/09/09 06:55:30;;;;;;;9.63;8.50;;;21.80;99.90;;;;;;6255505;28;20311;-79
2023/09/09 06:58:33;;;;;;;12.32;11.07;;;22.10;99.90;;;;;;6252772;28;20037;-80
2023/09/09 07:01:35;;;;;;;10.95;9.85;;;22.30;99.90;;;;;;6259248;28;20041;-79
2023/09/09 07:04:37;;;;;;;11.70;9.98;;;22.50;99.90;;;;;;6251545;28;20099;-79
2023/09/09 07:07:38;;;;;;;11.45;9.57;;;22.70;99.90;;;;;;6257928;28;20049;-80
2023/09/09 07:10:48;;;;;;;10.48;9.02;;;22.80;99.90;;;;;;6258840;28;20065;-79
2023/09/09 07:13:51;;;;;;;11.60;10.23;;;22.90;99.90;;;;;;6257103;28;20037;-79
2023/09/09 07:16:53;;;;;;;11.68;9.77;;;23.10;99.90;;;;;;6257433;28;20044;-78
2023/09/09 07:19:54;;;;;;;14.20;9.80;;;23.40;99.90;;;;;;6256993;28;20059;-79
2023/09/09 07:22:56;;;;;;;16.38;10.32;;;23.70;99.90;;;;;;6256139;28;20050;-79
2023/09/09 07:25:57;;;;;;;10.68;9.60;;;23.90;99.90;;;;;;6257009;28;20046;-78
2023/09/09 07:29:01;;;;;;;12.38;9.27;;;24.20;99.90;;;;;;6257859;28;20056;-79
2023/09/09 07:32:03;;;;;;;12.93;9.55;;;24.40;99.90;;;;;;6257458;28;20490;-79
2023/09/09 07:35:06;;;;;;;9.98;8.98;;;24.60;99.90;;;;;;6256676;28;20046;-79
2023/09/09 07:38:07;;;;;;;12.13;9.25;;;24.80;99.90;;;;;;6255748;28;20033;-80
2023/09/09 07:41:10;;;;;;;16.38;10.15;;;25.10;99.90;;;;;;6256227;28;20059;-83
2023/09/09 07:44:13;;;;;;;11.57;9.30;;;25.30;99.90;;;;;;6254502;28;20045;-80
2023/09/09 07:47:14;;;;;;;10.55;8.73;;;25.50;99.90;;;;;;6255821;28;20072;-79
2023/09/09 07:50:16;;;;;;;9.75;8.75;;;25.70;99.90;;;;;;6255333;28;20041;-79
2023/09/09 07:53:18;;;;;;;11.25;8.98;;;26.00;99.90;;;;;;6254292;28;20051;-80
2023/09/09 07:56:19;;;;;;;14.48;9.07;;;26.30;99.90;;;;;;6256074;28;20041;-80
2023/09/09 07:59:22;;;;;;;8.70;7.90;;;26.60;99.30;;;;;;6256246;28;20037;-80
2023/09/09 08:02:24;;;;;;;13.10;9.70;;;27.00;98.90;;;;;;6256149;28;20049;-81
2023/09/09 08:05:26;;;;;;;12.82;7.95;;;27.30;98.20;;;;;;6258342;28;20046;-80
2023/09/09 08:08:27;;;;;;;9.55;8.55;;;27.70;97.60;;;;;;6258136;28;20047;-80
2023/09/09 08:11:29;;;;;;;8.55;7.68;;;28.10;96.70;;;;;;6256779;28;20052;-81
2023/09/09 08:14:32;;;;;;;10.90;8.60;;;28.70;95.70;;;;;;6256202;28;20072;-79
2023/09/09 08:17:34;;;;;;;9.57;8.23;;;29.20;94.10;;;;;;6252841;28;20042;-80
2023/09/09 08:20:36;;;;;;;10.13;9.13;;;29.70;92.70;;;;;;6244886;28;20060;-80
2023/09/09 08:23:37;;;;;;;10.30;8.55;;;30.00;91.30;;;;;;6255027;28;20056;-81
2023/09/09 08:26:39;;;;;;;9.48;8.27;;;30.40;90.00;;;;;;6255769;28;20049;-80
2023/09/09 08:29:42;;;;;;;9.05;8.10;;;30.70;87.30;;;;;;6252527;28;20418;-80
2023/09/09 08:32:44;;;;;;;15.63;8.48;;;30.70;85.20;;;;;;6251129;28;20516;-79
2023/09/09 08:35:45;;;;;;;14.13;8.32;;;30.90;83.90;;;;;;6252509;28;20045;-80
2023/09/09 08:38:47;;;;;;;8.57;7.57;;;30.90;82.80;;;;;;6250306;28;20470;-79
2023/09/09 08:41:58;;;;;;;8.32;7.03;;;30.70;82.20;;;;;;6250475;28;20042;-80
2023/09/09 08:45:09;;;;;;;8.20;7.50;;;30.50;82.20;;;;;;6252002;28;20045;-81
2023/09/09 08:48:18;;;;;;;8.70;7.90;;;30.30;82.30;;;;;;6252094;28;20049;-81
2023/09/09 08:51:25;;;;;;;7.85;6.80;;;30.10;82.90;;;;;;6250725;28;20049;-80
2023/09/09 08:54:27;;;;;;;8.00;7.22;;;30.10;83.30;;;;;;6250353;28;20124;-81
2023/09/09 08:57:31;;;;;;;11.05;7.65;;;30.10;83.00;;;;;;6250478;28;20041;-81
2023/09/09 09:00:35;;;;;;;8.73;7.75;;;30.30;82.80;;;;;;6250228;28;20048;-80
2023/09/09 09:03:38;;;;;;;17.33;13.00;;;30.40;82.10;;;;;;6250794;28;20056;-81
2023/09/09 09:06:41;;;;;;;21.38;13.98;;;30.40;81.70;;;;;;6250180;28;20059;-80
2023/09/09 09:09:43;;;;;;;10.20;8.20;;;30.40;81.60;;;;;;6250640;28;20418;-80
2023/09/09 09:12:45;;;;;;;8.77;7.68;;;30.40;81.40;;;;;;6242661;28;20048;-81
2023/09/09 09:15:48;;;;;;;9.60;8.05;;;30.40;80.60;;;;;;6250814;28;20060;-80
2023/09/09 09:18:50;;;;;;;7.50;6.75;;;30.30;80.70;;;;;;6250792;28;20121;-81
2023/09/09 09:21:53;;;;;;;7.30;6.57;;;30.30;80.80;;;;;;6249080;28;20048;-80
2023/09/09 09:24:54;;;;;;;7.57;6.82;;;30.50;80.70;;;;;;6248541;28;20042;-80
2023/09/09 09:27:57;;;;;;;12.50;7.97;;;30.50;80.60;;;;;;6249547;28;20056;-80
2023/09/09 09:31:00;;;;;;;8.18;7.38;;;30.60;80.30;;;;;;6245390;28;20050;-79
2023/09/09 09:34:02;;;;;;;9.32;6.43;;;30.90;79.80;;;;;;6257073;28;20048;-79
2023/09/09 09:37:10;;;;;;;7.47;6.65;;;31.10;79.30;;;;;;6252228;28;20050;-79
2023/09/09 09:40:12;;;;;;;7.82;7.10;;;31.40;78.60;;;;;;6251093;28;20045;-80
2023/09/09 09:43:20;;;;;;;14.48;9.82;;;31.60;77.90;;;;;;6249904;28;20399;-80
2023/09/09 09:46:23;;;;;;;28.88;22.13;;;31.70;77.10;;;;;;6249325;28;20042;-80
2023/09/09 09:49:33;;;;;;;8.93;8.02;;;31.80;76.90;;;;;;6249511;28;20046;-80
2023/09/09 09:52:35;;;;;;;8.00;7.20;;;32.00;76.40;;;;;;6248743;28;20045;-79
2023/09/09 09:55:38;;;;;;;10.27;6.85;;;32.10;75.90;;;;;;6251737;28;20053;-79
2023/09/09 09:58:43;;;;;;;7.22;6.53;;;32.30;75.00;;;;;;6254112;28;20457;-80
2023/09/09 10:01:48;;;;;;;8.07;7.18;;;32.50;74.60;;;;;;6251623;28;20056;-80
2023/09/09 10:04:52;;;;;;;9.77;7.78;;;32.70;73.50;;;;;;6254038;28;20041;-80
2023/09/09 10:07:55;;;;;;;8.70;7.82;;;32.90;72.80;;;;;;6254107;28;20059;-80
2023/09/09 10:11:03;;;;;;;7.90;7.00;;;33.00;72.30;;;;;;6253731;28;20414;-78
2023/09/09 10:14:11;;;;;;;7.50;6.85;;;33.20;71.40;;;;;;6254654;28;20056;-80
2023/09/09 10:17:16;;;;;;;15.05;9.27;;;33.30;70.60;;;;;;6254769;28;20413;-80
2023/09/09 10:20:19;;;;;;;8.25;7.28;;;33.40;69.90;;;;;;6253680;28;20041;-80
2023/09/09 10:23:22;;;;;;;8.50;6.63;;;33.50;69.30;;;;;;6253325;28;20049;-80
2023/09/09 10:26:24;;;;;;;8.93;7.63;;;33.60;69.00;;;;;;6252791;28;20041;-79
2023/09/09 10:29:27;;;;;;;6.95;6.35;;;33.80;68.60;;;;;;6251072;28;20060;-79
2023/09/09 10:32:31;;;;;;;7.07;6.40;;;34.00;67.90;;;;;;6253288;28;20038;-80
2023/09/09 10:35:34;;;;;;;7.30;6.68;;;34.40;66.70;;;;;;6255368;28;20060;-80
2023/09/09 10:38:36;;;;;;;11.88;6.35;;;34.60;65.90;;;;;;6256526;28;20045;-80
2023/09/09 10:41:38;;;;;;;6.55;5.95;;;34.90;64.90;;;;;;6255218;28;20041;-80
2023/09/09 10:44:40;;;;;;;8.35;5.93;;;35.30;64.20;;;;;;6255073;28;20048;-80
2023/09/09 10:47:54;;;;;;;7.43;6.68;;;35.40;63.60;;;;;;6257906;28;20049;-79
2023/09/09 10:50:56;;;;;;;6.70;5.95;;;35.50;62.50;;;;;;6247863;28;20053;-80
2023/09/09 10:54:08;;;;;;;11.13;5.95;;;35.70;62.30;;;;;;6253851;28;20056;-80
2023/09/09 10:57:15;;;;;;;6.43;5.78;;;35.90;61.30;;;;;;6255203;28;20123;-81
2023/09/09 11:00:37;;;;;;;7.50;6.80;;;36.00;61.10;;;;;;6255359;28;20119;-80
2023/09/09 11:03:47;;;;;;;6.53;5.88;;;36.10;60.70;;;;;;6255470;28;20042;-81
2023/09/09 11:07:08;;;;;;;9.10;6.65;;;36.40;60.20;;;;;;6252865;28;20117;-80
2023/09/09 11:10:15;;;;;;;8.80;6.20;;;36.80;59.20;;;;;;6248506;28;20052;-80
2023/09/09 11:13:17;;;;;;;5.90;5.25;;;37.00;58.80;;;;;;6255971;28;20048;-80
2023/09/09 11:16:32;;;;;;;9.93;6.72;;;37.10;58.90;;;;;;6255221;28;20059;-81
2023/09/09 11:19:36;;;;;;;7.40;5.88;;;37.10;57.20;;;;;;6255758;28;20065;-81
2023/09/09 11:22:39;;;;;;;6.68;5.15;;;36.90;57.30;;;;;;6258052;28;20054;-81
2023/09/09 11:25:41;;;;;;;6.40;5.82;;;36.90;57.40;;;;;;6258297;28;20049;-81
2023/09/09 11:28:46;;;;;;;6.68;6.05;;;37.00;57.20;;;;;;6259721;28;20049;-81
2023/09/09 11:31:48;;;;;;;9.43;5.35;;;37.30;56.40;;;;;;6260716;28;20045;-82
2023/09/09 11:34:53;;;;;;;6.10;5.60;;;37.50;55.70;;;;;;6263085;28;20114;-81
2023/09/09 11:38:02;;;;;;;6.40;5.65;;;37.50;55.20;;;;;;6247148;28;20048;-81
2023/09/09 11:41:04;;;;;;;6.75;5.50;;;37.80;54.40;;;;;;6254705;28;20041;-81
2023/09/09 11:44:07;;;;;;;6.13;4.90;;;38.00;54.10;;;;;;6254113;28;20046;-81
2023/09/09 11:47:10;;;;;;;8.70;5.72;;;38.10;53.40;;;;;;6255649;28;20418;-81
2023/09/09 11:50:13;;;;;;;5.40;4.95;;;38.20;53.30;;;;;;6256454;28;20426;-81
2023/09/09 11:53:15;;;;;;;5.80;5.22;;;38.20;53.10;;;;;;6253665;28;20395;-81
2023/09/09 11:56:19;;;;;;;6.88;6.20;;;38.20;53.00;;;;;;6254328;28;20041;-81
2023/09/09 11:59:21;;;;;;;6.13;4.82;;;38.50;52.30;;;;;;6256444;28;20042;-81
2023/09/09 12:02:24;;;;;;;7.35;5.00;;;38.50;51.70;;;;;;6256355;28;20041;-82
2023/09/09 12:05:32;;;;;;;5.20;4.25;;;38.80;51.20;;;;;;6257302;28;20042;-81
2023/09/09 12:08:34;;;;;;;5.57;4.68;;;39.10;49.90;;;;;;6255708;28;20052;-81
2023/09/09 12:11:37;;;;;;;8.38;5.40;;;39.10;49.40;;;;;;6255413;28;20037;-81
2023/09/09 12:14:38;;;;;;;5.15;4.65;;;39.30;49.10;;;;;;6243626;28;20049;-80
2023/09/09 12:17:40;;;;;;;5.00;4.60;;;39.60;48.70;;;;;;6256022;28;20057;-82
2023/09/09 12:21:03;;;;;;;5.10;4.57;;;39.80;48.60;;;;;;6251876;28;20046;-81
2023/09/09 12:24:06;;;;;;;9.85;5.25;;;40.00;47.60;;;;;;6255954;28;20049;-82
2023/09/09 12:27:07;;;;;;;5.32;4.82;;;39.90;47.70;;;;;;6254885;28;20060;-82
2023/09/09 12:30:30;;;;;;;5.35;4.85;;;40.00;47.40;;;;;;6254947;28;20052;-82
2023/09/09 12:33:43;;;;;;;6.63;4.60;;;40.30;47.00;;;;;;6253375;28;20053;-81
2023/09/09 12:36:47;;;;;;;9.57;5.35;;;40.40;46.50;;;;;;6252815;28;20065;-81
2023/09/09 12:39:59;;;;;;;10.13;5.40;;;40.40;46.70;;;;;;6255590;28;20056;-82
2023/09/09 12:43:09;;;;;;;6.03;5.07;;;40.20;46.60;;;;;;6254766;28;20045;-83
2023/09/09 12:46:14;;;;;;;4.82;4.10;;;40.20;46.90;;;;;;6255117;28;20049;-82
2023/09/09 12:49:16;;;;;;;5.70;5.18;;;40.40;46.70;;;;;;6254937;28;20045;-82
2023/09/09 12:52:19;;;;;;;6.85;4.85;;;40.50;46.10;;;;;;6257085;28;20052;-81
2023/09/09 12:55:21;;;;;;;5.65;4.55;;;40.40;46.30;;;;;;6254340;28;20056;-82
2023/09/09 12:58:23;;;;;;;9.45;3.72;;;40.40;46.00;;;;;;6253488;28;20049;-81
2023/09/09 13:01:25;;;;;;;5.03;4.10;;;40.50;45.50;;;;;;6253018;28;20120;-82
2023/09/09 13:04:26;;;;;;;6.97;5.88;;;40.50;45.30;;;;;;6245647;28;20045;-81
2023/09/09 13:07:29;;;;;;;5.28;4.78;;;40.50;45.00;;;;;;6246354;28;20050;-80
2023/09/09 13:10:31;;;;;;;4.95;4.30;;;40.50;44.70;;;;;;6248392;28;20047;-80
2023/09/09 13:13:33;;;;;;;6.03;3.97;;;40.70;44.70;;;;;;6253246;28;20607;-81
2023/09/09 13:16:34;;;;;;;4.38;3.95;;;41.10;44.20;;;;;;6252218;28;20065;-81
2023/09/09 13:19:36;;;;;;;6.70;3.40;;;41.00;43.70;;;;;;6249039;28;20038;-83
2023/09/09 13:22:39;;;;;;;5.63;3.60;;;40.90;43.40;;;;;;6251719;28;20041;-81
2023/09/09 13:25:41;;;;;;;4.35;3.63;;;40.30;43.20;;;;;;6253567;28;20037;-80
2023/09/09 13:28:42;;;;;;;5.10;4.05;;;39.70;44.00;;;;;;6253220;28;20060;-80
2023/09/09 13:31:44;;;;;;;4.35;3.90;;;39.90;44.50;;;;;;6252375;28;20061;-81
2023/09/09 13:34:46;;;;;;;9.95;4.35;;;40.00;44.00;;;;;;6254196;28;20056;-82
2023/09/09 13:37:49;;;;;;;4.90;3.50;;;40.00;44.00;;;;;;6253374;28;20048;-80
2023/09/09 13:40:50;;;;;;;4.82;4.32;;;40.20;43.60;;;;;;6251776;28;20041;-81
2023/09/09 13:43:52;;;;;;;4.47;4.00;;;40.30;43.80;;;;;;6252963;28;20045;-81
2023/09/09 13:46:54;;;;;;;5.78;4.00;;;40.30;43.80;;;;;;6250944;28;20060;-81
2023/09/09 13:50:02;;;;;;;4.60;4.03;;;40.30;43.90;;;;;;6253001;28;20052;-80
2023/09/09 13:53:05;;;;;;;6.50;3.80;;;40.70;43.60;;;;;;6242111;28;20092;-78
2023/09/09 13:56:07;;;;;;;5.43;3.70;;;41.00;42.90;;;;;;6252981;28;20049;-79
2023/09/09 13:59:09;;;;;;;6.18;3.70;;;41.10;42.60;;;;;;6253162;28;20054;-78
2023/09/09 14:02:10;;;;;;;7.32;3.65;;;41.30;41.90;;;;;;6252568;28;20046;-78
2023/09/09 14:05:12;;;;;;;4.85;4.45;;;41.40;41.80;;;;;;6253074;28;20049;-78
2023/09/09 14:08:15;;;;;;;11.57;4.72;;;41.30;41.60;;;;;;6251487;28;20494;-78
2023/09/09 14:11:17;;;;;;;4.82;3.53;;;41.00;41.90;;;;;;6247559;28;20060;-78
2023/09/09 14:14:18;;;;;;;7.65;4.22;;;40.70;42.10;;;;;;6248966;28;20052;-78
2023/09/09 14:17:20;;;;;;;4.68;3.78;;;40.50;42.10;;;;;;6252907;28;20045;-78
2023/09/09 14:20:22;;;;;;;5.38;4.10;;;40.40;42.70;;;;;;6252340;28;20423;-78
2023/09/09 14:23:25;;;;;;;5.07;3.33;;;40.50;42.60;;;;;;6252948;28;20053;-78
2023/09/09 14:26:27;;;;;;;11.10;5.88;;;40.50;42.30;;;;;;6252671;28;20037;-78
2023/09/09 14:29:28;;;;;;;3.97;3.58;;;40.40;42.50;;;;;;6252165;28;20103;-78
2023/09/09 14:32:30;;;;;;;5.25;3.65;;;40.80;42.40;;;;;;6252050;28;20038;-78
2023/09/09 14:35:32;;;;;;;6.75;3.75;;;41.00;42.50;;;;;;6252282;28;20041;-78
2023/09/09 14:38:35;;;;;;;6.05;3.60;;;41.00;42.20;;;;;;6251775;28;20605;-77
2023/09/09 14:41:37;;;;;;;5.45;4.53;;;41.10;42.20;;;;;;6252567;28;20052;-78
2023/09/09 14:44:39;;;;;;;8.07;5.20;;;41.20;42.00;;;;;;6254906;28;20421;-79
2023/09/09 14:47:40;;;;;;;5.00;3.88;;;41.10;41.70;;;;;;6255498;28;20042;-78
2023/09/09 14:50:43;;;;;;;8.95;3.88;;;41.00;41.90;;;;;;6254258;28;20045;-78
2023/09/09 14:53:46;;;;;;;10.75;5.00;;;40.30;42.40;;;;;;6254108;28;20493;-77
2023/09/09 14:56:48;;;;;;;8.57;4.38;;;40.10;43.00;;;;;;6255145;28;20038;-78
2023/09/09 14:59:50;;;;;;;4.25;3.60;;;39.80;42.90;;;;;;6252918;28;20100;-77
2023/09/09 15:02:52;;;;;;;3.95;3.65;;;39.10;43.40;;;;;;6252993;28;20049;-78
2023/09/09 15:05:53;;;;;;;5.85;4.32;;;38.40;44.10;;;;;;6252654;28;20494;-79
2023/09/09 15:08:56;;;;;;;5.93;3.50;;;37.90;44.50;;;;;;6252435;28;20046;-78
2023/09/09 15:11:58;;;;;;;8.75;4.93;;;37.50;45.30;;;;;;6251822;28;20042;-77
2023/09/09 15:15:00;;;;;;;7.65;5.22;;;37.20;45.70;;;;;;6253734;28;20071;-78
2023/09/09 15:18:03;;;;;;;5.50;4.50;;;36.90;45.90;;;;;;6252644;28;20049;-78
2023/09/09 15:21:04;;;;;;;4.40;4.00;;;36.60;46.20;;;;;;6252284;28;20045;-78
2023/09/09 15:24:08;;;;;;;6.32;3.95;;;36.40;46.40;;;;;;6244772;28;20042;-77
2023/09/09 15:27:10;;;;;;;14.50;4.68;;;36.10;46.70;;;;;;6244933;28;20053;-78
2023/09/09 15:30:13;;;;;;;5.13;4.63;;;35.60;47.30;;;;;;6267374;28;20045;-78
2023/09/09 15:33:15;;;;;;;7.35;4.65;;;35.30;47.70;;;;;;6252012;28;20068;-79
2023/09/09 15:36:17;;;;;;;8.52;4.28;;;34.90;48.30;;;;;;6251787;28;20494;-78
2023/09/09 15:39:20;;;;;;;8.95;4.28;;;34.70;48.90;;;;;;6253216;28;20660;-78
2023/09/09 15:42:21;;;;;;;5.57;4.85;;;34.40;49.40;;;;;;6251115;28;20056;-81
2023/09/09 15:45:23;;;;;;;4.35;3.95;;;34.20;49.80;;;;;;6253470;28;20045;-80
2023/09/09 15:48:25;;;;;;;8.25;5.97;;;34.00;50.00;;;;;;6252396;28;20053;-79